Time;durP1;ratioP1;P1;durP2;ratioP2;P2;SDS_P1;SDS_P2;PMS_P1;PMS_P2;Temp;Humidity;BMP_temperature;BMP_pressure;BME280_temperature;BME280_humidity;BME280_pressure;Samples;Min_cycle;Max_cycle;Signal;HPM_P1;HPM_P2
2021/07/31 00:06:38;;;;;;;11;9.8;;;;;;;17.82;100;97815.42;;;;
2021/07/31 00:16:38;;;;;;;11.9;8.2;;;;;;;17.76;100;97813.41;;;;
2021/07/31 00:26:37;;;;;;;10.8;8.5;;;;;;;17.57;100;97808.9;;;;
2021/07/31 00:36:37;;;;;;;12.9;8.1;;;;;;;17.55;100;97805.74;;;;
2021/07/31 00:46:37;;;;;;;13.6;9.3;;;;;;;17.46;100;97802.5;;;;
2021/07/31 00:56:36;;;;;;;12.1;8.4;;;;;;;17.42;100;97798.98;;;;
2021/07/31 01:06:36;;;;;;;11.7;8.2;;;;;;;17.29;100;97805.8;;;;
2021/07/31 01:16:35;;;;;;;15.7;9.7;;;;;;;17.24;100;97804.2;;;;
2021/07/31 01:26:35;;;;;;;11;8.7;;;;;;;17.13;100;97792.39;;;;
2021/07/31 01:36:35;;;;;;;10.8;8.3;;;;;;;17.07;100;97791.94;;;;
2021/07/31 01:46:34;;;;;;;9;7.2;;;;;;;17;100;97794.56;;;;
2021/07/31 01:56:34;;;;;;;10.4;7.8;;;;;;;17.13;100;97778.77;;;;
2021/07/31 02:06:33;;;;;;;12.4;9.9;;;;;;;17;100;97766.55;;;;
2021/07/31 03:56:28;;;;;;;12.3;7.6;;;;;;;17.81;100;97751.15;;;;
2021/07/31 04:06:28;;;;;;;11.5;8.4;;;;;;;18.26;100;97746.47;;;;
2021/07/31 04:16:28;;;;;;;11.2;7.5;;;;;;;18.58;100;97744.79;;;;
2021/07/31 04:26:27;;;;;;;12.5;9.3;;;;;;;18.91;100;97762.94;;;;
2021/07/31 04:36:27;;;;;;;16.4;10.9;;;;;;;19.3;100;97763.13;;;;
2021/07/31 04:46:27;;;;;;;15.7;10.3;;;;;;;19.91;100;97776.6;;;;
2021/07/31 04:56:27;;;;;;;15.3;9.9;;;;;;;20.59;100;97775.47;;;;
2021/07/31 05:06:27;;;;;;;17.3;9.1;;;;;;;21.06;100;97790.66;;;;
2021/07/31 05:16:28;;;;;;;12.5;8.8;;;;;;;21.31;100;97793.33;;;;
2021/07/31 05:26:27;;;;;;;12;9.1;;;;;;;21.4;100;97795.66;;;;
2021/07/31 05:36:28;;;;;;;14.3;9.2;;;;;;;21.44;100;97813.66;;;;
2021/07/31 05:46:27;;;;;;;13.1;7.1;;;;;;;21.42;100;97796.03;;;;
2021/07/31 05:56:28;;;;;;;20;7.6;;;;;;;21.4;100;97814.84;;;;
2021/07/31 06:06:28;;;;;;;10.8;7.9;;;;;;;21.45;100;97822.67;;;;
2021/07/31 06:16:28;;;;;;;9.8;7.3;;;;;;;21.58;100;97842.98;;;;
2021/07/31 06:26:28;;;;;;;11.9;7.7;;;;;;;21.49;100;97846.14;;;;
2021/07/31 06:36:29;;;;;;;8.9;6.2;;;;;;;21.2;100;97863.08;;;;
2021/07/31 06:46:29;;;;;;;12.4;6.8;;;;;;;21.44;100;97875.94;;;;
2021/07/31 06:56:29;;;;;;;8.7;6.5;;;;;;;21.25;100;97892.8;;;;
2021/07/31 07:06:30;;;;;;;8.1;4.8;;;;;;;21.05;100;97915.13;;;;
2021/07/31 07:16:30;;;;;;;11.7;5.6;;;;;;;20.84;100;97928.03;;;;
2021/07/31 07:26:30;;;;;;;11.7;5.7;;;;;;;20.49;100;97932.3;;;;
2021/07/31 07:36:30;;;;;;;13.3;5.3;;;;;;;20.65;100;97942.12;;;;
2021/07/31 07:46:31;;;;;;;6.6;3.7;;;;;;;20.85;100;97952.31;;;;
2021/07/31 07:56:31;;;;;;;9;5;;;;;;;21.12;100;97951.94;;;;
2021/07/31 08:06:31;;;;;;;8.9;4.9;;;;;;;21.67;100;97974.98;;;;
2021/07/31 08:16:31;;;;;;;9.2;5;;;;;;;22.14;100;97975.66;;;;
2021/07/31 08:26:32;;;;;;;8.2;5.5;;;;;;;22.16;100;97962.31;;;;
2021/07/31 08:36:32;;;;;;;6.5;3.4;;;;;;;22.25;100;97962.67;;;;
2021/07/31 08:46:32;;;;;;;7.7;5;;;;;;;22.69;100;97971.09;;;;
2021/07/31 08:56:33;;;;;;;7.2;4.3;;;;;;;22.79;100;97955.7;;;;
2021/07/31 09:06:33;;;;;;;6.6;4.3;;;;;;;23.24;100;97956.53;;;;
2021/07/31 09:16:34;;;;;;;8.1;5;;;;;;;23.52;100;97942.55;;;;
2021/07/31 09:26:34;;;;;;;6.2;3.8;;;;;;;23.63;100;97928.68;;;;
2021/07/31 09:36:35;;;;;;;7.5;4.2;;;;;;;24.05;100;97928.95;;;;
2021/07/31 09:46:35;;;;;;;8;4.6;;;;;;;24.13;100;97923.38;;;;
2021/07/31 09:56:36;;;;;;;7.3;3.9;;;;;;;24.37;100;97938.8;;;;
2021/07/31 10:06:37;;;;;;;7.1;5;;;;;;;24.38;100;97930.13;;;;
2021/07/31 10:16:37;;;;;;;7.6;4.5;;;;;;;24.22;100;97931.94;;;;
2021/07/31 10:26:38;;;;;;;6.7;4.5;;;;;;;24.28;100;97935.78;;;;
2021/07/31 10:36:39;;;;;;;5.8;3.8;;;;;;;24.78;100;97925.59;;;;
2021/07/31 10:46:41;;;;;;;10.1;4.8;;;;;;;25.44;100;97920.17;;;;
2021/07/31 10:56:49;;;;;;;6;3.3;;;;;;;25.83;100;97904.88;;;;
2021/07/31 11:07:12;;;;;;;5.7;3.7;;;;;;;25.68;100;97895.33;;;;
2021/07/31 11:16:42;;;;;;;10.1;3.4;;;;;;;26.45;100;97884.63;;;;
2021/07/31 11:26:43;;;;;;;10;4;;;;;;;26.09;100;97884.62;;;;
2021/07/31 11:36:44;;;;;;;5.8;3.8;;;;;;;26.03;100;97878.05;;;;
2021/07/31 11:46:45;;;;;;;5.4;2.9;;;;;;;26.79;100;97871.19;;;;
2021/07/31 11:56:46;;;;;;;4.9;2.7;;;;;;;27.58;100;97867.2;;;;
2021/07/31 12:06:48;;;;;;;4.4;2.7;;;;;;;28.13;100;97868.8;;;;
2021/07/31 12:16:49;;;;;;;4.5;2.1;;;;;;;27.64;100;97870.98;;;;
2021/07/31 12:26:53;;;;;;;6.6;3.1;;;;;;;28.01;100;97876.62;;;;
2021/07/31 12:36:54;;;;;;;6.2;3.1;;;;;;;28.47;100;97871.7;;;;
2021/07/31 12:46:52;;;;;;;3.5;2.1;;;;;;;28.41;100;97867.94;;;;
2021/07/31 12:56:54;;;;;;;4.2;2.7;;;;;;;28.57;97.42773;97870.59;;;;
2021/07/31 13:06:55;;;;;;;4;1.9;;;;;;;28.26;94.58203;97869.59;;;;
2021/07/31 13:16:56;;;;;;;3.3;2;;;;;;;28.55;96.05762;97870.27;;;;
2021/07/31 13:26:57;;;;;;;4.9;2.8;;;;;;;28.99;94.78223;97866.46;;;;
2021/07/31 13:37:00;;;;;;;5.4;2.5;;;;;;;29.33;95.28613;97865.72;;;;
2021/07/31 13:47:00;;;;;;;5.1;2.5;;;;;;;29.96;91.34375;97864.66;;;;
2021/07/31 13:57:01;;;;;;;9.7;6.9;;;;;;;30.43;82.95703;97867.25;;;;
2021/07/31 14:07:02;;;;;;;5.6;2.5;;;;;;;29.49;70.16113;97875.89;;;;
2021/07/31 14:17:04;;;;;;;5;2.4;;;;;;;28.42;78.19336;97861.97;;;;
2021/07/31 14:27:05;;;;;;;11.3;4.7;;;;;;;28.42;85.44141;97850.09;;;;
2021/07/31 14:37:06;;;;;;;5.4;2.4;;;;;;;29.26;80.24219;97852.08;;;;
2021/07/31 14:47:13;;;;;;;4.5;2.7;;;;;;;29.31;80.17969;97850.73;;;;
2021/07/31 14:57:09;;;;;;;5;2.1;;;;;;;28.38;84.33301;97850.2;;;;
2021/07/31 15:07:10;;;;;;;8.6;5.5;;;;;;;27.75;88.08887;97857.63;;;;
2021/07/31 15:17:16;;;;;;;26.4;14.8;;;;;;;27.44;90.11914;97849.78;;;;
2021/07/31 15:27:13;;;;;;;7.7;4.9;;;;;;;26.97;100;97866;;;;
2021/07/31 15:37:14;;;;;;;5.8;2.8;;;;;;;26.73;100;97872.9;;;;
2021/07/31 15:47:15;;;;;;;5.4;3.4;;;;;;;29.25;97.26855;97877.5;;;;
2021/07/31 15:57:16;;;;;;;5.1;3.3;;;;;;;30.62;91.13672;97863.29;;;;
2021/07/31 16:07:18;;;;;;;6.9;4;;;;;;;30.91;83.87109;97852.56;;;;
2021/07/31 16:17:20;;;;;;;8.2;4.3;;;;;;;31.97;82.35059;97849.94;;;;
2021/07/31 16:27:22;;;;;;;6.6;3.6;;;;;;;29.55;94.66309;97837.97;;;;
2021/07/31 16:37:24;;;;;;;5.9;3.5;;;;;;;28.92;97.58594;97830.63;;;;
2021/07/31 16:47:25;;;;;;;8.2;4;;;;;;;29.18;96.55371;97828.56;;;;
2021/07/31 16:57:26;;;;;;;8.2;3.6;;;;;;;29.45;93.62402;97830.8;;;;
2021/07/31 17:07:28;;;;;;;6.5;3.9;;;;;;;28.9;94.96289;97830.31;;;;
2021/07/31 17:17:29;;;;;;;7.6;3.9;;;;;;;29.16;94.77148;97825.44;;;;
2021/07/31 17:27:31;;;;;;;6;3.1;;;;;;;27.62;100;97807.77;;;;
2021/07/31 17:37:32;;;;;;;7.7;3.7;;;;;;;26.51;100;97816.59;;;;
2021/07/31 17:47:33;;;;;;;6.8;4.6;;;;;;;25.71;100;97800.63;;;;
2021/07/31 17:57:34;;;;;;;7.4;6.4;;;;;;;25.02;100;97810.64;;;;
2021/07/31 18:07:35;;;;;;;6.6;4.4;;;;;;;24.06;100;97809.38;;;;
2021/07/31 18:17:35;;;;;;;7;4.6;;;;;;;23.39;100;97804.75;;;;
2021/07/31 18:27:36;;;;;;;7.3;4.8;;;;;;;22.89;100;97820.98;;;;
2021/07/31 18:37:36;;;;;;;9.3;4.6;;;;;;;22.32;100;97826.13;;;;
2021/07/31 18:47:36;;;;;;;9.5;5.3;;;;;;;21.85;100;97833.06;;;;
2021/07/31 18:57:37;;;;;;;8;4.6;;;;;;;21.42;100;97840.67;;;;
2021/07/31 19:07:37;;;;;;;9.5;6.5;;;;;;;21.05;100;97859.54;;;;
2021/07/31 19:17:37;;;;;;;9.1;4.9;;;;;;;20.69;100;97869.73;;;;
2021/07/31 19:27:37;;;;;;;10.9;5.7;;;;;;;20.48;100;97884.19;;;;
2021/07/31 19:37:37;;;;;;;7.4;5.8;;;;;;;20.24;100;97870.44;;;;
2021/07/31 19:47:38;;;;;;;8.8;5.6;;;;;;;19.91;100;97886;;;;
2021/07/31 19:57:37;;;;;;;7.1;5;;;;;;;19.74;100;97899.6;;;;
2021/07/31 20:07:38;;;;;;;10.5;5.9;;;;;;;19.59;100;97896.8;;;;
2021/07/31 20:17:38;;;;;;;8.1;5.8;;;;;;;19.4;100;97893.55;;;;
2021/07/31 20:27:37;;;;;;;10.2;6.4;;;;;;;19.23;100;97883.3;;;;
2021/07/31 20:37:37;;;;;;;9.2;6.2;;;;;;;19.02;100;97895.63;;;;
2021/07/31 20:47:37;;;;;;;7.4;5.7;;;;;;;18.88;100;97920.1;;;;
2021/07/31 20:57:36;;;;;;;7.7;6.4;;;;;;;18.73;100;97920.38;;;;
2021/07/31 21:07:36;;;;;;;10.5;6.9;;;;;;;18.62;100;97933.92;;;;
2021/07/31 21:17:36;;;;;;;15.2;6.8;;;;;;;18.5;100;97932.24;;;;
2021/07/31 21:27:36;;;;;;;8.4;5.4;;;;;;;18.53;100;97934.22;;;;
2021/07/31 21:37:36;;;;;;;11;7.8;;;;;;;18.52;100;97940.07;;;;
2021/07/31 21:47:35;;;;;;;12.6;9;;;;;;;18.55;100;97948.29;;;;
2021/07/31 21:57:35;;;;;;;12.9;7.5;;;;;;;18.48;100;97941.94;;;;
2021/07/31 22:07:35;;;;;;;12.2;9;;;;;;;18.31;100;97945.27;;;;
2021/07/31 22:17:35;;;;;;;10.8;7.8;;;;;;;18.13;100;97944.28;;;;
2021/07/31 22:27:35;;;;;;;10;8;;;;;;;17.97;100;97939.84;;;;
2021/07/31 22:37:34;;;;;;;9.1;7.4;;;;;;;17.96;100;97937.47;;;;
2021/07/31 22:47:34;;;;;;;9.4;7.2;;;;;;;17.91;100;97930.39;;;;
2021/07/31 22:57:34;;;;;;;9.8;6.6;;;;;;;17.86;100;97943.58;;;;
2021/07/31 23:07:33;;;;;;;9.5;7.1;;;;;;;17.89;100;97964.64;;;;
2021/07/31 23:17:33;;;;;;;9.1;5.9;;;;;;;17.96;100;97970.98;;;;
2021/07/31 23:27:33;;;;;;;9.4;6.8;;;;;;;17.88;100;97991.12;;;;
2021/07/31 23:37:32;;;;;;;9.5;7.4;;;;;;;17.78;100;98001.88;;;;
2021/07/31 23:47:32;;;;;;;9.8;5.7;;;;;;;17.69;100;97988.53;;;;
2021/07/31 23:57:32;;;;;;;9.3;5.6;;;;;;;17.42;100;97982.26;;;;
